Time;durP1;ratioP1;P1;durP2;ratioP2;P2;SDS_P1;SDS_P2;PMS_P1;PMS_P2;Temp;Humidity;BMP_temperature;BMP_pressure;BME280_temperature;BME280_humidity;BME280_pressure;Samples;Min_cycle;Max_cycle;Signal;HPM_P1;HPM_P2
2023/08/17 00:00:21;;;;;;;5.13;3.80;;;;;;;;;;5082056;28;20267;-78
2023/08/17 00:02:46;;;;;;;3.80;3.50;;;;;;;;;;5084270;28;20175;-78
2023/08/17 00:05:11;;;;;;;4.80;3.40;;;;;;;;;;5069240;28;20313;-78
2023/08/17 00:07:37;;;;;;;3.63;3.13;;;;;;;;;;5075032;28;20186;-78
2023/08/17 00:10:02;;;;;;;3.23;2.93;;;;;;;;;;5073164;28;20182;-78
2023/08/17 00:12:28;;;;;;;3.23;2.93;;;;;;;;;;5071801;28;20176;-78
2023/08/17 00:14:53;;;;;;;3.20;2.90;;;;;;;;;;5071335;28;20201;-78
2023/08/17 00:17:19;;;;;;;4.20;3.20;;;;;;;;;;5070971;28;20192;-78
2023/08/17 00:19:44;;;;;;;3.80;3.47;;;;;;;;;;5089694;28;20201;-78
2023/08/17 00:22:09;;;;;;;3.27;2.97;;;;;;;;;;5081977;28;20181;-78
2023/08/17 00:24:34;;;;;;;4.63;3.00;;;;;;;;;;5070076;28;20269;-78
2023/08/17 00:26:59;;;;;;;3.83;2.90;;;;;;;;;;5083698;28;20316;-78
2023/08/17 00:29:25;;;;;;;3.10;2.80;;;;;;;;;;5090772;28;20178;-78
2023/08/17 00:31:51;;;;;;;3.90;3.50;;;;;;;;;;5084196;28;20191;-78
2023/08/17 00:34:16;;;;;;;2.90;2.70;;;;;;;;;;5069191;28;20178;-78
2023/08/17 00:36:41;;;;;;;4.43;2.83;;;;;;;;;;5069504;28;20234;-78
2023/08/17 00:39:06;;;;;;;3.70;3.10;;;;;;;;;;5089095;28;20225;-78
2023/08/17 00:41:31;;;;;;;3.50;3.00;;;;;;;;;;5072175;28;20175;-78
2023/08/17 00:43:56;;;;;;;3.30;3.00;;;;;;;;;;5088967;28;20265;-78
2023/08/17 00:46:22;;;;;;;3.50;3.03;;;;;;;;;;5072760;28;20171;-78
2023/08/17 00:48:48;;;;;;;4.93;3.23;;;;;;;;;;5090426;28;20273;-78
2023/08/17 00:51:13;;;;;;;3.93;3.30;;;;;;;;;;5079838;28;20277;-78
2023/08/17 00:53:38;;;;;;;3.50;3.20;;;;;;;;;;5063468;28;20173;-77
2023/08/17 00:56:03;;;;;;;3.80;3.30;;;;;;;;;;5073445;28;20179;-78
2023/08/17 00:58:29;;;;;;;5.60;3.63;;;;;;;;;;5078812;28;20178;-78
2023/08/17 01:00:54;;;;;;;4.43;2.83;;;;;;;;;;5070720;28;20185;-78
2023/08/17 01:03:21;;;;;;;3.47;3.17;;;;;;;;;;5090309;28;20182;-78
2023/08/17 01:05:47;;;;;;;3.50;3.20;;;;;;;;;;5089151;28;20209;-78
2023/08/17 01:08:12;;;;;;;4.07;3.77;;;;;;;;;;5084825;28;20208;-78
2023/08/17 01:10:44;;;;;;;5.03;3.80;;;;;;;;;;5081080;28;20173;-78
2023/08/17 01:13:12;;;;;;;4.00;3.60;;;;;;;;;;5076491;28;20186;-78
2023/08/17 01:15:40;;;;;;;7.30;4.13;;;;;;;;;;5084419;28;20197;-78
2023/08/17 01:18:08;;;;;;;3.60;3.30;;;;;;;;;;5082357;28;20182;-78
2023/08/17 01:20:34;;;;;;;4.33;3.93;;;;;;;;;;5074940;28;20287;-78
2023/08/17 01:23:08;;;;;;;4.97;3.70;;;;;;;;;;5094574;28;20269;-78
2023/08/17 01:25:36;;;;;;;4.40;3.50;;;;;;;;;;5088048;28;20181;-78
2023/08/17 01:28:02;;;;;;;3.50;3.20;;;;;;;;;;5083095;28;20177;-78
2023/08/17 01:30:27;;;;;;;3.77;3.47;;;;;;;;;;5074036;28;20227;-78
2023/08/17 01:32:52;;;;;;;3.93;3.13;;;;;;;;;;5072023;28;20181;-78
2023/08/17 01:35:28;;;;;;;3.40;3.10;;;;;;;;;;5090929;28;20181;-78
2023/08/17 01:37:54;;;;;;;3.03;2.73;;;;;;;;;;5092412;28;20196;-78
2023/08/17 01:40:19;;;;;;;3.40;3.10;;;;;;;;;;5074238;28;20199;-78
2023/08/17 01:42:45;;;;;;;4.10;3.33;;;;;;;;;;5095156;28;20186;-78
2023/08/17 01:45:11;;;;;;;3.93;3.63;;;;;;;;;;5092694;28;20183;-78
2023/08/17 01:47:36;;;;;;;4.33;3.93;;;;;;;;;;5091919;28;20177;-78
2023/08/17 01:50:01;;;;;;;7.93;4.00;;;;;;;;;;5091154;28;20180;-78
2023/08/17 01:52:27;;;;;;;4.37;3.40;;;;;;;;;;5076702;28;20267;-78
2023/08/17 01:54:52;;;;;;;3.77;3.47;;;;;;;;;;5095394;28;20185;-78
2023/08/17 01:57:17;;;;;;;3.37;3.10;;;;;;;;;;5089098;28;20238;-78
2023/08/17 01:59:43;;;;;;;5.67;3.83;;;;;;;;;;5072129;28;20200;-78
2023/08/17 02:02:08;;;;;;;4.33;3.93;;;;;;;;;;5083482;28;20179;-78
2023/08/17 02:04:33;;;;;;;6.83;4.90;;;;;;;;;;5092621;28;20172;-78
2023/08/17 02:06:59;;;;;;;4.57;4.17;;;;;;;;;;5090603;28;20229;-78
2023/08/17 02:09:24;;;;;;;5.20;3.50;;;;;;;;;;5097160;28;20184;-78
2023/08/17 02:11:49;;;;;;;4.00;3.60;;;;;;;;;;5084647;28;20191;-78
2023/08/17 02:14:14;;;;;;;4.90;4.17;;;;;;;;;;5076294;28;20179;-78
2023/08/17 02:16:39;;;;;;;5.63;4.87;;;;;;;;;;5087840;28;20256;-78
2023/08/17 02:19:04;;;;;;;8.23;4.30;;;;;;;;;;5075741;28;20226;-78
2023/08/17 02:21:30;;;;;;;6.23;5.63;;;;;;;;;;5075437;28;20177;-78
2023/08/17 02:23:55;;;;;;;5.43;4.90;;;;;;;;;;5100456;28;20185;-78
2023/08/17 02:26:20;;;;;;;8.43;5.90;;;;;;;;;;5073487;28;20294;-78
2023/08/17 02:28:45;;;;;;;7.00;5.20;;;;;;;;;;5091338;28;20203;-78
2023/08/17 02:31:11;;;;;;;7.43;5.57;;;;;;;;;;5084335;28;20276;-78
2023/08/17 02:33:36;;;;;;;7.20;6.50;;;;;;;;;;5079844;28;20225;-78
2023/08/17 02:36:02;;;;;;;9.20;6.27;;;;;;;;;;5091132;28;20283;-78
2023/08/17 02:38:27;;;;;;;8.43;6.97;;;;;;;;;;5073656;28;20210;-78
2023/08/17 02:40:52;;;;;;;12.37;7.07;;;;;;;;;;5095018;28;20177;-78
2023/08/17 02:43:17;;;;;;;10.97;7.97;;;;;;;;;;5076070;28;20252;-78
2023/08/17 02:45:43;;;;;;;18.40;8.93;;;;;;;;;;5081796;28;20182;-78
2023/08/17 02:48:08;;;;;;;12.93;8.73;;;;;;;;;;5092950;28;20200;-78
2023/08/17 02:50:33;;;;;;;11.10;8.03;;;;;;;;;;5074221;28;20230;-78
2023/08/17 02:52:59;;;;;;;10.20;8.20;;;;;;;;;;5094971;28;20187;-78
2023/08/17 02:55:25;;;;;;;12.57;7.50;;;;;;;;;;5097398;28;20229;-78
2023/08/17 02:57:50;;;;;;;12.30;7.40;;;;;;;;;;5090895;28;20210;-78
2023/08/17 03:00:15;;;;;;;14.13;8.90;;;;;;;;;;5084698;28;20256;-78
2023/08/17 03:02:40;;;;;;;15.93;8.67;;;;;;;;;;5095081;28;20169;-78
2023/08/17 03:05:05;;;;;;;26.17;8.60;;;;;;;;;;5092207;28;20234;-78
2023/08/17 03:07:31;;;;;;;23.27;8.27;;;;;;;;;;5089743;28;20177;-78
2023/08/17 03:09:56;;;;;;;20.33;7.37;;;;;;;;;;5093878;28;20275;-79
2023/08/17 03:12:21;;;;;;;24.10;7.43;;;;;;;;;;5091340;28;20173;-78
2023/08/17 03:14:46;;;;;;;16.80;7.00;;;;;;;;;;5091443;28;20188;-78
2023/08/17 03:17:11;;;;;;;14.53;7.40;;;;;;;;;;5085760;28;20197;-78
2023/08/17 03:19:37;;;;;;;18.90;7.80;;;;;;;;;;5096147;28;20293;-78
2023/08/17 03:22:02;;;;;;;7.23;6.50;;;;;;;;;;5072584;28;20249;-78
2023/08/17 03:24:27;;;;;;;7.27;6.33;;;;;;;;;;5071297;28;20246;-78
2023/08/17 03:26:52;;;;;;;6.90;6.30;;;;;;;;;;5075383;28;20207;-78
2023/08/17 03:29:17;;;;;;;10.43;6.77;;;;;;;;;;5073460;28;20169;-78
2023/08/17 03:31:42;;;;;;;7.00;6.37;;;;;;;;;;5089558;28;20185;-78
2023/08/17 03:34:08;;;;;;;6.40;5.80;;;;;;;;;;5076035;28;20187;-78
2023/08/17 03:36:33;;;;;;;6.17;5.03;;;;;;;;;;5076362;28;20224;-79
2023/08/17 03:38:58;;;;;;;8.73;5.37;;;;;;;;;;5073899;28;20198;-78
2023/08/17 03:41:24;;;;;;;5.77;5.27;;;;;;;;;;5091018;28;20245;-79
2023/08/17 03:43:49;;;;;;;6.27;5.63;;;;;;;;;;5083092;28;20174;-78
2023/08/17 03:46:14;;;;;;;7.27;6.03;;;;;;;;;;5074316;28;20174;-78
2023/08/17 03:48:39;;;;;;;6.07;5.50;;;;;;;;;;5073930;28;20171;-79
2023/08/17 03:51:04;;;;;;;8.40;6.07;;;;;;;;;;5073243;28;20233;-79
2023/08/17 03:53:30;;;;;;;8.33;6.17;;;;;;;;;;5074243;28;20267;-79
2023/08/17 03:55:55;;;;;;;7.10;6.50;;;;;;;;;;5077365;28;20288;-78
2023/08/17 03:58:20;;;;;;;6.43;5.83;;;;;;;;;;5091829;28;20177;-78
2023/08/17 04:00:52;;;;;;;6.47;5.90;;;;;;;;;;5075572;28;20219;-79
2023/08/17 04:03:17;;;;;;;5.73;5.23;;;;;;;;;;5074707;28;20173;-78
2023/08/17 04:05:43;;;;;;;5.70;4.93;;;;;;;;;;5087213;28;20216;-79
2023/08/17 04:08:08;;;;;;;6.00;5.47;;;;;;;;;;5088515;28;20196;-79
2023/08/17 04:10:33;;;;;;;7.93;5.57;;;;;;;;;;5087996;28;20267;-79
2023/08/17 04:12:58;;;;;;;5.80;4.87;;;;;;;;;;5074009;28;20180;-79
2023/08/17 04:15:23;;;;;;;5.07;4.40;;;;;;;;;;5086849;28;20179;-79
2023/08/17 04:17:49;;;;;;;6.70;5.47;;;;;;;;;;5088219;28;20197;-79
2023/08/17 04:20:14;;;;;;;7.00;6.30;;;;;;;;;;5074788;28;20290;-78
2023/08/17 04:22:39;;;;;;;6.83;6.20;;;;;;;;;;5090721;28;20170;-79
2023/08/17 04:25:04;;;;;;;5.83;5.33;;;;;;;;;;5070460;28;20216;-78
2023/08/17 04:27:30;;;;;;;6.40;5.80;;;;;;;;;;5074136;28;20170;-78
2023/08/17 04:29:55;;;;;;;6.77;5.97;;;;;;;;;;5073037;28;20212;-78
2023/08/17 04:32:20;;;;;;;5.47;5.03;;;;;;;;;;5093685;28;20174;-78
2023/08/17 04:34:46;;;;;;;5.30;4.83;;;;;;;;;;5086460;28;20230;-79
2023/08/17 04:37:11;;;;;;;5.37;4.87;;;;;;;;;;5084438;28;20225;-79
2023/08/17 04:39:36;;;;;;;5.00;4.60;;;;;;;;;;5088476;28;20213;-78
2023/08/17 04:42:02;;;;;;;6.37;5.07;;;;;;;;;;5083043;28;20174;-79
2023/08/17 04:44:28;;;;;;;7.30;5.70;;;;;;;;;;5080590;28;20171;-79
2023/08/17 04:46:53;;;;;;;7.00;6.27;;;;;;;;;;5072146;28;20264;-79
2023/08/17 04:49:18;;;;;;;7.40;5.97;;;;;;;;;;5087089;28;20204;-79
2023/08/17 04:51:43;;;;;;;6.67;6.13;;;;;;;;;;5081366;28;20202;-79
2023/08/17 04:54:08;;;;;;;8.17;6.13;;;;;;;;;;5084658;28;20235;-78
2023/08/17 04:56:34;;;;;;;4.97;4.57;;;;;;;;;;5076603;28;20219;-78
2023/08/17 04:58:59;;;;;;;5.23;4.73;;;;;;;;;;5068215;28;20225;-78
2023/08/17 05:01:24;;;;;;;7.13;5.90;;;;;;;;;;5088878;28;20194;-78
2023/08/17 05:03:49;;;;;;;11.53;6.70;;;;;;;;;;5095966;28;20302;-78
2023/08/17 05:06:14;;;;;;;6.50;5.87;;;;;;;;;;5093425;28;20192;-78
2023/08/17 05:08:40;;;;;;;11.40;7.03;;;;;;;;;;5089991;28;20300;-78
2023/08/17 05:11:05;;;;;;;10.40;5.97;;;;;;;;;;5077272;28;20175;-78
2023/08/17 05:13:30;;;;;;;7.23;5.27;;;;;;;;;;5078062;28;20235;-78
2023/08/17 05:15:55;;;;;;;16.57;7.37;;;;;;;;;;5077447;28;20181;-78
2023/08/17 05:18:21;;;;;;;13.50;7.60;;;;;;;;;;5092167;28;20186;-78
2023/08/17 05:20:46;;;;;;;7.93;6.97;;;;;;;;;;5092659;28;20206;-78
2023/08/17 05:23:11;;;;;;;11.03;6.77;;;;;;;;;;5079694;28;20175;-78
2023/08/17 05:25:36;;;;;;;6.77;5.97;;;;;;;;;;5101434;28;20265;-78
2023/08/17 05:28:01;;;;;;;6.73;6.03;;;;;;;;;;5075220;28;20272;-78
2023/08/17 05:30:27;;;;;;;6.33;5.03;;;;;;;;;;5089697;28;20182;-78
2023/08/17 05:32:52;;;;;;;5.80;5.20;;;;;;;;;;5088354;28;20186;-78
2023/08/17 05:35:17;;;;;;;10.83;5.73;;;;;;;;;;5092821;28;20224;-78
2023/08/17 05:37:42;;;;;;;6.87;5.87;;;;;;;;;;5085732;28;20185;-78
2023/08/17 05:40:08;;;;;;;6.27;5.67;;;;;;;;;;5076416;28;20248;-78
2023/08/17 05:42:34;;;;;;;7.90;6.53;;;;;;;;;;5090052;28;20179;-77
2023/08/17 05:44:59;;;;;;;10.17;7.17;;;;;;;;;;5090267;28;20214;-78
2023/08/17 05:47:24;;;;;;;7.00;6.30;;;;;;;;;;5090122;28;20204;-78
2023/08/17 05:49:49;;;;;;;6.30;5.23;;;;;;;;;;5093591;28;20170;-78
2023/08/17 05:52:14;;;;;;;9.90;5.80;;;;;;;;;;5087399;28;20177;-78
2023/08/17 05:54:40;;;;;;;6.67;5.97;;;;;;;;;;5090870;28;20175;-77
2023/08/17 05:57:05;;;;;;;9.73;6.30;;;;;;;;;;5077820;28;20321;-78
2023/08/17 05:59:30;;;;;;;8.30;7.10;;;;;;;;;;5083734;28;20225;-78
2023/08/17 06:01:55;;;;;;;6.43;5.20;;;;;;;;;;5094011;28;20187;-78
2023/08/17 06:04:20;;;;;;;6.93;6.17;;;;;;;;;;5077521;28;20184;-78
2023/08/17 06:06:46;;;;;;;7.00;5.77;;;;;;;;;;5074309;28;20209;-77
2023/08/17 06:09:11;;;;;;;6.80;5.67;;;;;;;;;;5092284;28;20190;-78
2023/08/17 06:11:36;;;;;;;9.80;5.97;;;;;;;;;;5096785;28;20172;-77
2023/08/17 06:14:02;;;;;;;5.60;5.10;;;;;;;;;;5091381;28;20198;-77
2023/08/17 06:16:27;;;;;;;6.30;4.90;;;;;;;;;;5071572;28;20184;-78
2023/08/17 06:18:52;;;;;;;5.50;4.90;;;;;;;;;;5079588;28;20217;-77
2023/08/17 06:21:17;;;;;;;99.37;15.20;;;;;;;;;;5083555;28;20195;-77
2023/08/17 06:23:42;;;;;;;5.03;4.63;;;;;;;;;;5069406;28;20220;-77
2023/08/17 06:26:08;;;;;;;24.43;6.13;;;;;;;;;;5065055;28;20180;-77
2023/08/17 06:28:33;;;;;;;5.37;4.50;;;;;;;;;;5086196;28;20168;-78
2023/08/17 06:30:58;;;;;;;5.23;4.20;;;;;;;;;;5076021;28;20214;-78
2023/08/17 06:33:24;;;;;;;5.33;4.83;;;;;;;;;;5087423;28;20176;-78
2023/08/17 06:35:49;;;;;;;5.87;4.53;;;;;;;;;;5072910;28;20228;-78
2023/08/17 06:38:14;;;;;;;4.60;4.20;;;;;;;;;;5071392;28;20188;-77
2023/08/17 06:40:39;;;;;;;4.63;4.17;;;;;;;;;;5092530;28;20236;-77
2023/08/17 06:43:05;;;;;;;6.93;4.30;;;;;;;;;;5071645;28;20213;-86
2023/08/17 06:45:33;;;;;;;4.40;4.00;;;;;;;;;;5086068;28;20179;-81
2023/08/17 06:47:58;;;;;;;4.90;3.83;;;;;;;;;;5072926;28;20191;-80
2023/08/17 06:50:24;;;;;;;4.40;4.10;;;;;;;;;;5077902;28;20199;-81
2023/08/17 06:52:49;;;;;;;23.97;4.97;;;;;;;;;;5074023;28;20196;-81
2023/08/17 06:55:15;;;;;;;4.13;3.57;;;;;;;;;;5074842;28;20178;-81
2023/08/17 06:57:41;;;;;;;5.33;3.20;;;;;;;;;;5079900;28;20190;-81
2023/08/17 07:00:06;;;;;;;3.30;3.00;;;;;;;;;;5071552;28;20188;-81
2023/08/17 07:02:31;;;;;;;3.73;3.30;;;;;;;;;;5071212;28;20234;-81
2023/08/17 07:04:57;;;;;;;4.00;3.60;;;;;;;;;;5086793;28;20187;-81
2023/08/17 07:07:22;;;;;;;5.30;4.00;;;;;;;;;;5073037;28;20176;-84
2023/08/17 07:09:47;;;;;;;3.60;3.30;;;;;;;;;;5068990;28;20185;-76
2023/08/17 07:12:12;;;;;;;6.83;3.90;;;;;;;;;;5081465;28;20268;-76
2023/08/17 07:14:38;;;;;;;4.63;3.40;;;;;;;;;;5065099;28;20226;-76
2023/08/17 07:17:03;;;;;;;3.80;3.50;;;;;;;;;;5069954;28;20208;-76
2023/08/17 07:19:28;;;;;;;3.23;2.93;;;;;;;;;;5086338;28;20187;-76
2023/08/17 07:21:54;;;;;;;6.60;3.30;;;;;;;;;;5087122;28;20190;-76
2023/08/17 07:24:19;;;;;;;16.93;4.17;;;;;;;;;;5092355;28;20170;-76
2023/08/17 07:26:44;;;;;;;4.80;3.43;;;;;;;;;;5089951;28;20180;-75
2023/08/17 07:29:11;;;;;;;3.40;3.10;;;;;;;;;;5093340;28;20210;-76
2023/08/17 07:31:37;;;;;;;13.33;4.00;;;;;;;;;;5074070;28;20341;-76
2023/08/17 07:34:02;;;;;;;5.13;3.10;;;;;;;;;;5097994;28;20243;-76
2023/08/17 07:36:28;;;;;;;6.73;3.10;;;;;;;;;;5066085;28;20236;-76
2023/08/17 07:38:53;;;;;;;2.93;2.63;;;;;;;;;;5063722;28;20198;-76
2023/08/17 07:41:18;;;;;;;4.30;2.73;;;;;;;;;;5075285;28;20175;-76
2023/08/17 07:43:43;;;;;;;3.40;3.07;;;;;;;;;;5070172;28;20181;-76
2023/08/17 07:46:08;;;;;;;3.30;3.00;;;;;;;;;;5069287;28;20285;-76
2023/08/17 07:48:34;;;;;;;4.23;2.93;;;;;;;;;;5065828;28;20218;-76
2023/08/17 07:50:59;;;;;;;3.57;2.90;;;;;;;;;;5066408;28;20206;-76
2023/08/17 07:53:24;;;;;;;4.30;3.27;;;;;;;;;;5067533;28;20190;-76
2023/08/17 07:55:49;;;;;;;4.77;2.70;;;;;;;;;;5068917;28;20188;-76
2023/08/17 07:58:15;;;;;;;4.27;2.67;;;;;;;;;;5065167;28;20184;-76
2023/08/17 08:00:40;;;;;;;4.80;3.30;;;;;;;;;;5066966;28;20212;-76
2023/08/17 08:03:05;;;;;;;3.37;2.80;;;;;;;;;;5064829;28;20187;-76
2023/08/17 08:05:31;;;;;;;8.07;3.40;;;;;;;;;;5062537;28;20173;-77
2023/08/17 08:07:56;;;;;;;3.97;3.17;;;;;;;;;;5067713;28;20181;-76
2023/08/17 08:10:21;;;;;;;3.45;3.15;;;;;;;;;;5070439;28;20172;-76
2023/08/17 08:12:46;;;;;;;4.63;3.07;;;;;;;;;;5070725;28;20189;-76
2023/08/17 08:15:12;;;;;;;3.17;2.95;;;;;;;;;;5066647;28;20239;-76
2023/08/17 08:17:37;;;;;;;4.65;3.00;;;;;;;;;;5066157;28;20272;-76
2023/08/17 08:20:03;;;;;;;5.80;3.15;;;;;;;;;;5067276;28;20262;-76
2023/08/17 08:22:28;;;;;;;4.45;2.95;;;;;;;;;;5057121;28;20180;-76
2023/08/17 08:24:53;;;;;;;4.28;3.50;;;;;;;;;;5076007;28;20180;-76
2023/08/17 08:27:18;;;;;;;3.50;3.20;;;;;;;;;;5061527;28;20200;-76
2023/08/17 08:29:44;;;;;;;2.90;2.70;;;;;;;;;;5062275;28;20189;-76
2023/08/17 08:32:09;;;;;;;3.22;3.00;;;;;;;;;;5068138;28;20188;-76
2023/08/17 08:34:34;;;;;;;3.10;2.85;;;;;;;;;;5068045;28;20205;-76
2023/08/17 08:36:59;;;;;;;6.57;3.38;;;;;;;;;;5071368;28;20245;-76
2023/08/17 08:39:25;;;;;;;3.30;3.00;;;;;;;;;;5069404;28;20213;-76
2023/08/17 08:41:50;;;;;;;2.78;2.58;;;;;;;;;;5071454;28;20208;-76
2023/08/17 08:44:15;;;;;;;6.00;2.58;;;;;;;;;;5072117;28;20177;-76
2023/08/17 08:46:42;;;;;;;4.07;2.78;;;;;;;;;;5073138;28;20174;-76
2023/08/17 08:49:09;;;;;;;2.63;2.42;;;;;;;;;;5068567;28;20237;-72
2023/08/17 08:51:37;;;;;;;3.30;3.00;;;;;;;;;;5070830;28;20294;-73
2023/08/17 08:54:04;;;;;;;7.63;5.18;;;;;;;;;;5073754;28;20181;-73
2023/08/17 08:56:31;;;;;;;12.07;3.72;;;;;;;;;;5072998;28;20174;-72
2023/08/17 08:58:58;;;;;;;2.92;2.72;;;;;;;;;;5071895;28;20246;-73
2023/08/17 09:01:24;;;;;;;3.28;2.67;;;;;;;;;;5066797;28;20185;-73
2023/08/17 09:03:50;;;;;;;10.63;3.75;;;;;;;;;;5089402;28;20161;-72
2023/08/17 09:06:16;;;;;;;2.92;2.65;;;;;;;;;;5075805;28;20227;-72
2023/08/17 09:08:41;;;;;;;3.00;2.80;;;;;;;;;;5071842;28;20177;-73
2023/08/17 09:11:06;;;;;;;5.43;3.20;;;;;;;;;;5074217;28;20178;-73
2023/08/17 09:13:31;;;;;;;2.95;2.75;;;;;;;;;;5066146;28;20212;-72
2023/08/17 09:15:58;;;;;;;5.03;3.10;;;;;;;;;;5071962;28;20239;-72
2023/08/17 09:18:24;;;;;;;2.85;2.65;;;;;;;;;;5066204;28;20170;-73
2023/08/17 09:20:51;;;;;;;7.15;2.95;;;;;;;;;;5072564;28;20318;-73
2023/08/17 09:23:19;;;;;;;3.10;2.90;;;;;;;;;;5084342;28;20201;-73
2023/08/17 09:25:45;;;;;;;6.72;3.70;;;;;;;;;;5072376;28;20181;-72
2023/08/17 09:28:14;;;;;;;2.90;2.70;;;;;;;;;;5070563;28;20203;-72
2023/08/17 09:30:48;;;;;;;3.00;2.80;;;;;;;;;;5068616;28;20181;-72
2023/08/17 09:33:14;;;;;;;3.50;3.20;;;;;;;;;;5074820;28;20177;-73
2023/08/17 09:35:41;;;;;;;3.67;2.85;;;;;;;;;;5072799;28;20219;-73
2023/08/17 09:38:06;;;;;;;3.88;3.00;;;;;;;;;;5083048;28;20177;-73
2023/08/17 09:40:31;;;;;;;3.17;2.67;;;;;;;;;;5073850;28;20208;-72
2023/08/17 09:42:56;;;;;;;3.42;3.08;;;;;;;;;;5083136;28;20184;-73
2023/08/17 09:45:21;;;;;;;3.40;3.10;;;;;;;;;;5100045;28;20208;-72
2023/08/17 09:47:47;;;;;;;4.95;3.30;;;;;;;;;;5088946;28;20204;-72
2023/08/17 09:50:12;;;;;;;4.10;3.60;;;;;;;;;;5074264;28;20237;-72
2023/08/17 09:52:38;;;;;;;8.57;2.90;;;;;;;;;;5073614;28;20184;-73
2023/08/17 09:55:04;;;;;;;2.60;2.45;;;;;;;;;;5074670;28;20211;-72
2023/08/17 09:57:30;;;;;;;3.85;3.03;;;;;;;;;;5092082;28;20188;-73
2023/08/17 09:59:55;;;;;;;3.35;3.05;;;;;;;;;;5070070;28;20189;-73
2023/08/17 10:02:22;;;;;;;3.45;2.97;;;;;;;;;;5093587;28;20169;-73
2023/08/17 10:04:53;;;;;;;3.53;2.78;;;;;;;;;;5077830;28;20177;-72
2023/08/17 10:07:19;;;;;;;3.42;2.92;;;;;;;;;;5072530;28;20179;-73
2023/08/17 10:09:46;;;;;;;3.47;3.17;;;;;;;;;;5088107;28;20181;-74
2023/08/17 10:12:15;;;;;;;3.97;3.40;;;;;;;;;;5086345;28;20216;-73
2023/08/17 10:14:46;;;;;;;3.50;3.00;;;;;;;;;;5073961;28;20240;-73
2023/08/17 10:17:15;;;;;;;3.70;3.40;;;;;;;;;;5091374;28;20180;-73
2023/08/17 10:19:40;;;;;;;3.70;3.35;;;;;;;;;;5078509;28;20197;-73
2023/08/17 10:22:12;;;;;;;4.38;3.50;;;;;;;;;;5093224;28;20230;-73
2023/08/17 10:24:38;;;;;;;3.58;3.25;;;;;;;;;;5075356;28;20264;-73
2023/08/17 10:27:04;;;;;;;4.32;3.15;;;;;;;;;;5092643;28;20192;-74
2023/08/17 10:29:30;;;;;;;3.40;3.17;;;;;;;;;;5072086;28;20234;-73
2023/08/17 10:31:56;;;;;;;3.42;3.13;;;;;;;;;;5078672;28;20184;-73
2023/08/17 10:34:22;;;;;;;3.28;2.97;;;;;;;;;;5082941;28;20238;-73
2023/08/17 10:36:48;;;;;;;3.70;3.50;;;;;;;;;;5070019;28;20228;-73
2023/08/17 10:39:20;;;;;;;3.97;3.20;;;;;;;;;;5083530;28;20208;-73
2023/08/17 10:41:49;;;;;;;3.92;3.22;;;;;;;;;;5091030;28;20208;-73
2023/08/17 10:44:16;;;;;;;15.57;4.63;;;;;;;;;;5092277;28;20173;-73
2023/08/17 10:46:43;;;;;;;3.80;3.40;;;;;;;;;;5089240;28;20177;-73
2023/08/17 10:49:24;;;;;;;15.27;4.28;;;;;;;;;;5090639;28;20212;-73
2023/08/17 10:52:02;;;;;;;3.60;3.30;;;;;;;;;;5088331;28;20201;-73
2023/08/17 10:54:36;;;;;;;3.67;3.38;;;;;;;;;;5087098;28;20184;-73
2023/08/17 10:57:21;;;;;;;4.68;3.45;;;;;;;;;;5090471;28;20198;-73
2023/08/17 10:59:46;;;;;;;3.60;3.30;;;;;;;;;;5086669;28;20196;-73
2023/08/17 11:02:11;;;;;;;5.63;4.22;;;;;;;;;;5098095;28;20187;-74
2023/08/17 11:04:36;;;;;;;7.28;3.80;;;;;;;;;;5077544;28;20175;-73
2023/08/17 11:07:03;;;;;;;4.13;3.80;;;;;;;;;;5088415;28;20181;-73
2023/08/17 11:09:28;;;;;;;4.30;3.72;;;;;;;;;;5071865;28;20208;-73
2023/08/17 11:11:54;;;;;;;3.65;3.35;;;;;;;;;;5069900;28;20204;-74
2023/08/17 11:14:20;;;;;;;4.00;3.70;;;;;;;;;;5089944;28;20185;-74
2023/08/17 11:16:46;;;;;;;4.43;3.80;;;;;;;;;;5072076;28;20177;-74
2023/08/17 11:19:11;;;;;;;3.75;3.45;;;;;;;;;;5083647;28;20216;-74
2023/08/17 11:21:36;;;;;;;4.68;3.85;;;;;;;;;;5076596;28;20165;-73
2023/08/17 11:24:02;;;;;;;5.05;3.63;;;;;;;;;;5095619;28;20235;-73
2023/08/17 11:26:27;;;;;;;3.70;3.40;;;;;;;;;;5073195;28;20165;-74
2023/08/17 11:28:53;;;;;;;4.70;3.83;;;;;;;;;;5088093;28;20169;-73
2023/08/17 11:31:18;;;;;;;4.80;4.40;;;;;;;;;;5072082;28;20260;-74
2023/08/17 11:33:45;;;;;;;7.97;6.97;;;;;;;;;;5082213;28;20177;-73
2023/08/17 11:36:10;;;;;;;7.68;6.88;;;;;;;;;;5071917;28;20224;-73
2023/08/17 11:38:36;;;;;;;11.90;8.52;;;;;;;;;;5090065;28;20180;-74
2023/08/17 11:41:02;;;;;;;9.43;8.52;;;;;;;;;;5070556;28;20223;-73
2023/08/17 11:43:28;;;;;;;9.30;7.90;;;;;;;;;;5086786;28;20306;-73
2023/08/17 11:45:54;;;;;;;14.45;9.77;;;;;;;;;;5086490;28;20232;-73
2023/08/17 11:48:19;;;;;;;10.98;9.98;;;;;;;;;;5073215;28;20191;-73
2023/08/17 11:50:45;;;;;;;10.57;8.75;;;;;;;;;;5066114;28;20580;-73
2023/08/17 11:53:10;;;;;;;10.63;9.63;;;;;;;;;;5072866;28;20173;-73
2023/08/17 11:55:36;;;;;;;10.55;9.55;;;;;;;;;;5071379;28;20199;-73
2023/08/17 11:58:01;;;;;;;11.65;10.55;;;;;;;;;;5098068;28;20199;-73
2023/08/17 12:00:27;;;;;;;9.82;8.95;;;;;;;;;;5074897;28;20227;-73
2023/08/17 12:02:53;;;;;;;11.77;9.15;;;;;;;;;;5081894;28;20185;-73
2023/08/17 12:05:23;;;;;;;11.35;9.65;;;;;;;;;;5076140;28;20292;-75
2023/08/17 12:07:48;;;;;;;9.68;8.50;;;;;;;;;;5069588;28;20173;-75
2023/08/17 12:10:13;;;;;;;8.43;7.63;;;;;;;;;;5071402;28;20199;-75
2023/08/17 12:12:39;;;;;;;7.82;7.13;;;;;;;;;;5090200;28;20169;-75
2023/08/17 12:15:05;;;;;;;7.10;6.50;;;;;;;;;;5072283;28;20177;-75
2023/08/17 12:17:30;;;;;;;6.65;6.05;;;;;;;;;;5071348;28;20234;-75
2023/08/17 12:19:56;;;;;;;12.20;6.45;;;;;;;;;;5071854;28;20205;-75
2023/08/17 12:22:23;;;;;;;7.35;6.65;;;;;;;;;;5067013;28;20222;-75
2023/08/17 12:24:48;;;;;;;13.25;7.75;;;;;;;;;;5095335;28;20179;-75
2023/08/17 12:27:14;;;;;;;9.32;8.20;;;;;;;;;;5088693;28;20169;-75
2023/08/17 12:29:48;;;;;;;10.65;9.73;;;;;;;;;;5086779;28;20172;-75
2023/08/17 12:32:15;;;;;;;9.48;8.68;;;;;;;;;;5087066;28;20271;-75
2023/08/17 12:34:40;;;;;;;9.00;8.20;;;;;;;;;;5074975;28;20173;-75
2023/08/17 12:37:07;;;;;;;10.30;7.82;;;;;;;;;;5068154;28;20237;-75
2023/08/17 12:39:32;;;;;;;8.75;7.95;;;;;;;;;;5076812;28;20197;-76
2023/08/17 12:41:58;;;;;;;8.77;7.88;;;;;;;;;;5070471;28;20174;-76
2023/08/17 12:44:23;;;;;;;7.25;6.55;;;;;;;;;;5071283;28;20173;-76
2023/08/17 12:46:48;;;;;;;7.10;6.50;;;;;;;;;;5085089;28;20176;-76
2023/08/17 12:49:13;;;;;;;10.73;9.73;;;;;;;;;;5068353;28;20185;-76
2023/08/17 12:51:39;;;;;;;9.88;8.80;;;;;;;;;;5067144;28;20205;-76
2023/08/17 12:54:04;;;;;;;11.77;10.63;;;;;;;;;;5065482;28;20174;-75
2023/08/17 12:56:29;;;;;;;12.40;11.18;;;;;;;;;;5072517;28;20177;-76
2023/08/17 12:58:54;;;;;;;10.35;9.35;;;;;;;;;;5072252;28;20235;-76
2023/08/17 13:01:19;;;;;;;10.00;9.02;;;;;;;;;;5069198;28;20233;-76
2023/08/17 13:03:45;;;;;;;9.88;8.60;;;;;;;;;;5071228;28;20169;-76
2023/08/17 13:06:10;;;;;;;13.52;12.23;;;;;;;;;;5067700;28;20169;-76
2023/08/17 13:08:35;;;;;;;11.35;10.40;;;;;;;;;;5067562;28;20209;-75
2023/08/17 13:11:00;;;;;;;8.77;7.97;;;;;;;;;;5066301;28;20175;-76
2023/08/17 13:13:26;;;;;;;10.13;9.13;;;;;;;;;;5064412;28;20191;-76
2023/08/17 13:15:51;;;;;;;9.45;8.60;;;;;;;;;;5057939;28;20209;-76
2023/08/17 13:18:16;;;;;;;9.10;8.30;;;;;;;;;;5067383;28;20192;-76
2023/08/17 13:20:41;;;;;;;7.97;7.18;;;;;;;;;;5071308;28;20292;-75
2023/08/17 13:23:07;;;;;;;8.88;8.05;;;;;;;;;;5073825;28;20315;-76
2023/08/17 13:25:32;;;;;;;9.50;8.70;;;;;;;;;;5078299;28;20187;-76
2023/08/17 13:27:57;;;;;;;9.25;8.45;;;;;;;;;;5065297;28;20182;-76
2023/08/17 13:30:22;;;;;;;8.65;7.88;;;;;;;;;;5070460;28;20185;-76
2023/08/17 13:32:47;;;;;;;9.80;8.82;;;;;;;;;;5072368;28;20185;-76
2023/08/17 13:35:13;;;;;;;10.57;9.57;;;;;;;;;;5071923;28;20183;-76
2023/08/17 13:37:39;;;;;;;11.32;10.20;;;;;;;;;;5098702;28;20217;-76
2023/08/17 13:40:05;;;;;;;10.88;9.88;;;;;;;;;;5080686;28;20277;-75
2023/08/17 13:42:31;;;;;;;9.88;9.00;;;;;;;;;;5097178;28;20173;-76
2023/08/17 13:44:56;;;;;;;11.65;10.57;;;;;;;;;;5095082;28;20180;-76
2023/08/17 13:47:22;;;;;;;10.73;9.77;;;;;;;;;;5076866;28;20176;-76
2023/08/17 13:49:47;;;;;;;9.68;8.77;;;;;;;;;;5077317;28;20195;-75
2023/08/17 13:52:12;;;;;;;10.20;9.30;;;;;;;;;;5095168;28;20450;-76
2023/08/17 13:54:38;;;;;;;11.18;10.18;;;;;;;;;;5092396;28;20178;-76
2023/08/17 13:57:03;;;;;;;11.55;10.50;;;;;;;;;;5095060;28;20204;-76
2023/08/17 13:59:29;;;;;;;9.68;8.68;;;;;;;;;;5091887;28;20201;-77
2023/08/17 14:01:56;;;;;;;9.05;8.32;;;;;;;;;;5089329;28;20178;-76
2023/08/17 14:04:21;;;;;;;8.30;7.70;;;;;;;;;;5070243;28;20170;-77
2023/08/17 14:06:46;;;;;;;7.80;7.13;;;;;;;;;;5080903;28;20177;-77
2023/08/17 14:09:12;;;;;;;7.90;7.20;;;;;;;;;;5085552;28;20173;-77
2023/08/17 14:11:37;;;;;;;7.32;6.65;;;;;;;;;;5070547;28;20194;-77
2023/08/17 14:14:02;;;;;;;7.78;7.18;;;;;;;;;;5075779;28;20169;-77
2023/08/17 14:16:27;;;;;;;7.72;7.05;;;;;;;;;;5090903;28;20271;-77
2023/08/17 14:18:53;;;;;;;6.50;6.00;;;;;;;;;;5084304;28;20185;-77
2023/08/17 14:21:18;;;;;;;7.07;6.47;;;;;;;;;;5072906;28;20177;-77
2023/08/17 14:23:44;;;;;;;6.03;5.47;;;;;;;;;;5074147;28;20255;-77
2023/08/17 14:26:09;;;;;;;13.57;8.25;;;;;;;;;;5072119;28;20267;-77
2023/08/17 14:28:34;;;;;;;6.35;5.75;;;;;;;;;;5072076;28;20214;-77
2023/08/17 14:31:00;;;;;;;6.32;5.82;;;;;;;;;;5080432;28;20179;-76